sensor_id;sensor_type;location;lat;lon;timestamp;P1;durP1;ratioP1;P2;durP2;ratioP2
23175;SDS011;19910;42.652;23.332;2023-07-29T00:00:39;3.15;;;1.98;;
23175;SDS011;19910;42.652;23.332;2023-07-29T00:03:06;3.33;;;2.08;;
23175;SDS011;19910;42.652;23.332;2023-07-29T00:05:33;2.63;;;1.90;;
23175;SDS011;19910;42.652;23.332;2023-07-29T00:08:00;3.35;;;2.05;;
23175;SDS011;19910;42.652;23.332;2023-07-29T00:10:26;4.05;;;2.03;;
23175;SDS011;19910;42.652;23.332;2023-07-29T00:12:55;3.90;;;1.80;;
23175;SDS011;19910;42.652;23.332;2023-07-29T00:15:21;4.65;;;2.20;;
23175;SDS011;19910;42.652;23.332;2023-07-29T00:17:48;2.28;;;1.85;;
23175;SDS011;19910;42.652;23.332;2023-07-29T00:20:15;5.32;;;2.10;;
23175;SDS011;19910;42.652;23.332;2023-07-29T00:22:42;3.63;;;2.10;;
23175;SDS011;19910;42.652;23.332;2023-07-29T00:25:08;2.85;;;2.20;;
23175;SDS011;19910;42.652;23.332;2023-07-29T00:27:35;3.80;;;2.25;;
23175;SDS011;19910;42.652;23.332;2023-07-29T00:30:04;4.70;;;2.40;;
23175;SDS011;19910;42.652;23.332;2023-07-29T00:32:32;5.60;;;1.95;;
23175;SDS011;19910;42.652;23.332;2023-07-29T00:34:59;3.20;;;2.20;;
23175;SDS011;19910;42.652;23.332;2023-07-29T00:37:26;6.68;;;2.28;;
23175;SDS011;19910;42.652;23.332;2023-07-29T00:39:53;4.32;;;2.63;;
23175;SDS011;19910;42.652;23.332;2023-07-29T00:42:20;3.17;;;2.22;;
23175;SDS011;19910;42.652;23.332;2023-07-29T00:44:47;3.15;;;2.28;;
23175;SDS011;19910;42.652;23.332;2023-07-29T00:47:15;2.97;;;2.22;;
23175;SDS011;19910;42.652;23.332;2023-07-29T00:49:42;5.47;;;2.25;;
23175;SDS011;19910;42.652;23.332;2023-07-29T00:52:10;2.97;;;2.28;;
23175;SDS011;19910;42.652;23.332;2023-07-29T00:54:38;3.65;;;2.10;;
23175;SDS011;19910;42.652;23.332;2023-07-29T00:57:05;4.28;;;2.50;;
23175;SDS011;19910;42.652;23.332;2023-07-29T00:59:32;4.20;;;2.35;;
23175;SDS011;19910;42.652;23.332;2023-07-29T01:02:01;2.90;;;2.38;;
23175;SDS011;19910;42.652;23.332;2023-07-29T01:04:29;3.88;;;2.53;;
23175;SDS011;19910;42.652;23.332;2023-07-29T01:06:58;4.78;;;2.40;;
23175;SDS011;19910;42.652;23.332;2023-07-29T01:09:36;3.78;;;2.50;;
23175;SDS011;19910;42.652;23.332;2023-07-29T01:12:11;3.65;;;2.42;;
23175;SDS011;19910;42.652;23.332;2023-07-29T01:14:46;3.30;;;2.15;;
23175;SDS011;19910;42.652;23.332;2023-07-29T01:17:19;5.07;;;2.20;;
23175;SDS011;19910;42.652;23.332;2023-07-29T01:19:55;6.65;;;2.65;;
23175;SDS011;19910;42.652;23.332;2023-07-29T01:22:28;3.63;;;2.70;;
23175;SDS011;19910;42.652;23.332;2023-07-29T01:24:57;3.00;;;2.30;;
23175;SDS011;19910;42.652;23.332;2023-07-29T01:27:24;2.95;;;2.10;;
23175;SDS011;19910;42.652;23.332;2023-07-29T01:29:51;3.55;;;2.70;;
23175;SDS011;19910;42.652;23.332;2023-07-29T01:32:20;5.72;;;2.50;;
23175;SDS011;19910;42.652;23.332;2023-07-29T01:34:56;8.00;;;2.72;;
23175;SDS011;19910;42.652;23.332;2023-07-29T01:37:30;2.85;;;2.30;;
23175;SDS011;19910;42.652;23.332;2023-07-29T01:40:00;4.78;;;2.35;;
23175;SDS011;19910;42.652;23.332;2023-07-29T01:42:28;5.18;;;2.60;;
23175;SDS011;19910;42.652;23.332;2023-07-29T01:44:56;2.67;;;2.03;;
23175;SDS011;19910;42.652;23.332;2023-07-29T01:47:23;4.03;;;2.58;;
23175;SDS011;19910;42.652;23.332;2023-07-29T01:49:51;2.85;;;2.13;;
23175;SDS011;19910;42.652;23.332;2023-07-29T01:52:18;3.15;;;2.42;;
23175;SDS011;19910;42.652;23.332;2023-07-29T01:54:44;3.53;;;2.50;;
23175;SDS011;19910;42.652;23.332;2023-07-29T01:57:13;3.95;;;2.30;;
23175;SDS011;19910;42.652;23.332;2023-07-29T01:59:39;3.88;;;2.50;;
23175;SDS011;19910;42.652;23.332;2023-07-29T02:02:06;3.42;;;2.28;;
23175;SDS011;19910;42.652;23.332;2023-07-29T02:04:33;8.80;;;2.38;;
23175;SDS011;19910;42.652;23.332;2023-07-29T02:07:00;2.35;;;2.00;;
23175;SDS011;19910;42.652;23.332;2023-07-29T02:09:27;4.05;;;2.30;;
23175;SDS011;19910;42.652;23.332;2023-07-29T02:11:54;3.17;;;2.40;;
23175;SDS011;19910;42.652;23.332;2023-07-29T02:14:22;2.60;;;2.40;;
23175;SDS011;19910;42.652;23.332;2023-07-29T02:16:49;3.83;;;2.60;;
23175;SDS011;19910;42.652;23.332;2023-07-29T02:19:16;4.82;;;2.20;;
23175;SDS011;19910;42.652;23.332;2023-07-29T02:21:43;4.15;;;2.67;;
23175;SDS011;19910;42.652;23.332;2023-07-29T02:24:10;4.97;;;2.28;;
23175;SDS011;19910;42.652;23.332;2023-07-29T02:26:36;5.47;;;2.50;;
23175;SDS011;19910;42.652;23.332;2023-07-29T02:29:03;3.92;;;2.65;;
23175;SDS011;19910;42.652;23.332;2023-07-29T02:31:31;4.35;;;2.80;;
23175;SDS011;19910;42.652;23.332;2023-07-29T02:34:01;3.13;;;2.30;;
23175;SDS011;19910;42.652;23.332;2023-07-29T02:36:27;3.90;;;2.25;;
23175;SDS011;19910;42.652;23.332;2023-07-29T02:38:54;4.13;;;2.45;;
23175;SDS011;19910;42.652;23.332;2023-07-29T02:41:21;4.57;;;2.50;;
23175;SDS011;19910;42.652;23.332;2023-07-29T02:43:48;4.35;;;2.33;;
23175;SDS011;19910;42.652;23.332;2023-07-29T02:46:16;4.47;;;2.30;;
23175;SDS011;19910;42.652;23.332;2023-07-29T02:48:45;2.97;;;2.10;;
23175;SDS011;19910;42.652;23.332;2023-07-29T02:51:12;4.72;;;2.45;;
23175;SDS011;19910;42.652;23.332;2023-07-29T02:53:38;2.60;;;2.40;;
23175;SDS011;19910;42.652;23.332;2023-07-29T02:56:05;4.70;;;2.30;;
23175;SDS011;19910;42.652;23.332;2023-07-29T02:58:34;3.35;;;2.33;;
23175;SDS011;19910;42.652;23.332;2023-07-29T03:01:01;2.97;;;2.10;;
23175;SDS011;19910;42.652;23.332;2023-07-29T03:03:28;4.60;;;2.78;;
23175;SDS011;19910;42.652;23.332;2023-07-29T03:05:58;4.97;;;2.70;;
23175;SDS011;19910;42.652;23.332;2023-07-29T03:08:26;3.58;;;2.30;;
23175;SDS011;19910;42.652;23.332;2023-07-29T03:10:53;3.67;;;2.58;;
23175;SDS011;19910;42.652;23.332;2023-07-29T03:13:20;4.15;;;2.53;;
23175;SDS011;19910;42.652;23.332;2023-07-29T03:15:47;4.05;;;2.28;;
23175;SDS011;19910;42.652;23.332;2023-07-29T03:18:14;4.70;;;2.33;;
23175;SDS011;19910;42.652;23.332;2023-07-29T03:20:41;5.35;;;2.75;;
23175;SDS011;19910;42.652;23.332;2023-07-29T03:23:09;3.95;;;2.40;;
23175;SDS011;19910;42.652;23.332;2023-07-29T03:25:36;3.97;;;2.70;;
23175;SDS011;19910;42.652;23.332;2023-07-29T03:28:03;4.07;;;2.92;;
23175;SDS011;19910;42.652;23.332;2023-07-29T03:30:30;3.60;;;2.55;;
23175;SDS011;19910;42.652;23.332;2023-07-29T03:32:56;3.80;;;2.90;;
23175;SDS011;19910;42.652;23.332;2023-07-29T03:35:23;4.85;;;2.65;;
23175;SDS011;19910;42.652;23.332;2023-07-29T03:37:50;4.47;;;3.10;;
23175;SDS011;19910;42.652;23.332;2023-07-29T03:40:18;3.92;;;2.70;;
23175;SDS011;19910;42.652;23.332;2023-07-29T03:42:45;3.95;;;3.20;;
23175;SDS011;19910;42.652;23.332;2023-07-29T03:45:12;3.63;;;2.80;;
23175;SDS011;19910;42.652;23.332;2023-07-29T03:47:38;3.80;;;2.90;;
23175;SDS011;19910;42.652;23.332;2023-07-29T03:50:05;4.22;;;2.90;;
23175;SDS011;19910;42.652;23.332;2023-07-29T03:52:32;5.55;;;2.80;;
23175;SDS011;19910;42.652;23.332;2023-07-29T03:54:59;3.63;;;2.70;;
23175;SDS011;19910;42.652;23.332;2023-07-29T03:57:27;6.65;;;2.60;;
23175;SDS011;19910;42.652;23.332;2023-07-29T03:59:55;4.20;;;3.10;;
23175;SDS011;19910;42.652;23.332;2023-07-29T04:02:22;5.68;;;3.40;;
23175;SDS011;19910;42.652;23.332;2023-07-29T04:04:49;3.53;;;2.72;;
23175;SDS011;19910;42.652;23.332;2023-07-29T04:07:16;5.18;;;3.28;;
23175;SDS011;19910;42.652;23.332;2023-07-29T04:09:42;6.30;;;3.30;;
23175;SDS011;19910;42.652;23.332;2023-07-29T04:12:10;5.78;;;3.28;;
23175;SDS011;19910;42.652;23.332;2023-07-29T04:14:39;5.40;;;3.33;;
23175;SDS011;19910;42.652;23.332;2023-07-29T04:17:06;4.45;;;2.90;;
23175;SDS011;19910;42.652;23.332;2023-07-29T04:19:33;6.60;;;3.47;;
23175;SDS011;19910;42.652;23.332;2023-07-29T04:22:00;5.10;;;3.50;;
23175;SDS011;19910;42.652;23.332;2023-07-29T04:24:27;6.63;;;3.72;;
23175;SDS011;19910;42.652;23.332;2023-07-29T04:26:54;6.82;;;3.60;;
23175;SDS011;19910;42.652;23.332;2023-07-29T04:29:21;5.15;;;2.65;;
23175;SDS011;19910;42.652;23.332;2023-07-29T04:31:50;3.47;;;3.10;;
23175;SDS011;19910;42.652;23.332;2023-07-29T04:34:17;7.43;;;3.17;;
23175;SDS011;19910;42.652;23.332;2023-07-29T04:36:44;3.63;;;3.08;;
23175;SDS011;19910;42.652;23.332;2023-07-29T04:39:11;5.75;;;2.92;;
23175;SDS011;19910;42.652;23.332;2023-07-29T04:41:38;3.92;;;2.97;;
23175;SDS011;19910;42.652;23.332;2023-07-29T04:44:04;4.07;;;3.10;;
23175;SDS011;19910;42.652;23.332;2023-07-29T04:46:31;4.07;;;2.70;;
23175;SDS011;19910;42.652;23.332;2023-07-29T04:49:00;3.67;;;2.60;;
23175;SDS011;19910;42.652;23.332;2023-07-29T04:51:27;4.65;;;3.03;;
23175;SDS011;19910;42.652;23.332;2023-07-29T04:53:54;2.70;;;2.50;;
23175;SDS011;19910;42.652;23.332;2023-07-29T04:56:21;5.68;;;2.58;;
23175;SDS011;19910;42.652;23.332;2023-07-29T04:58:48;2.78;;;2.50;;
23175;SDS011;19910;42.652;23.332;2023-07-29T05:01:14;3.58;;;2.83;;
23175;SDS011;19910;42.652;23.332;2023-07-29T05:03:41;3.13;;;2.75;;
23175;SDS011;19910;42.652;23.332;2023-07-29T05:06:10;4.75;;;2.75;;
23175;SDS011;19910;42.652;23.332;2023-07-29T05:08:36;4.32;;;2.90;;
23175;SDS011;19910;42.652;23.332;2023-07-29T05:11:03;3.40;;;2.83;;
23175;SDS011;19910;42.652;23.332;2023-07-29T05:13:30;4.50;;;3.25;;
23175;SDS011;19910;42.652;23.332;2023-07-29T05:15:57;3.85;;;2.92;;
23175;SDS011;19910;42.652;23.332;2023-07-29T05:18:24;3.45;;;3.15;;
23175;SDS011;19910;42.652;23.332;2023-07-29T05:20:50;3.53;;;2.95;;
23175;SDS011;19910;42.652;23.332;2023-07-29T05:23:18;5.50;;;3.78;;
23175;SDS011;19910;42.652;23.332;2023-07-29T05:25:45;4.18;;;3.40;;
23175;SDS011;19910;42.652;23.332;2023-07-29T05:28:12;4.45;;;2.85;;
23175;SDS011;19910;42.652;23.332;2023-07-29T05:30:39;5.35;;;3.13;;
23175;SDS011;19910;42.652;23.332;2023-07-29T05:33:06;5.60;;;3.25;;
23175;SDS011;19910;42.652;23.332;2023-07-29T05:35:33;4.57;;;3.05;;
23175;SDS011;19910;42.652;23.332;2023-07-29T05:38:00;6.40;;;3.28;;
23175;SDS011;19910;42.652;23.332;2023-07-29T05:40:29;3.72;;;3.20;;
23175;SDS011;19910;42.652;23.332;2023-07-29T05:42:56;3.40;;;2.88;;
23175;SDS011;19910;42.652;23.332;2023-07-29T05:45:23;5.65;;;3.05;;
23175;SDS011;19910;42.652;23.332;2023-07-29T05:47:50;5.80;;;3.78;;
23175;SDS011;19910;42.652;23.332;2023-07-29T05:50:16;5.47;;;3.40;;
23175;SDS011;19910;42.652;23.332;2023-07-29T05:52:43;4.68;;;3.40;;
23175;SDS011;19910;42.652;23.332;2023-07-29T05:55:10;3.95;;;2.90;;
23175;SDS011;19910;42.652;23.332;2023-07-29T05:57:38;3.63;;;2.95;;
23175;SDS011;19910;42.652;23.332;2023-07-29T06:00:05;3.78;;;3.30;;
23175;SDS011;19910;42.652;23.332;2023-07-29T06:02:32;4.75;;;3.47;;
23175;SDS011;19910;42.652;23.332;2023-07-29T06:04:59;6.20;;;3.10;;
23175;SDS011;19910;42.652;23.332;2023-07-29T06:07:28;5.55;;;2.90;;
23175;SDS011;19910;42.652;23.332;2023-07-29T06:09:55;3.97;;;3.00;;
23175;SDS011;19910;42.652;23.332;2023-07-29T06:12:25;3.50;;;3.20;;
23175;SDS011;19910;42.652;23.332;2023-07-29T06:14:53;4.93;;;3.28;;
23175;SDS011;19910;42.652;23.332;2023-07-29T06:17:20;5.80;;;3.22;;
23175;SDS011;19910;42.652;23.332;2023-07-29T06:19:47;4.53;;;3.58;;
23175;SDS011;19910;42.652;23.332;2023-07-29T06:22:14;4.28;;;3.03;;
23175;SDS011;19910;42.652;23.332;2023-07-29T06:24:40;5.05;;;2.70;;
23175;SDS011;19910;42.652;23.332;2023-07-29T06:27:07;3.15;;;2.85;;
23175;SDS011;19910;42.652;23.332;2023-07-29T06:29:34;4.15;;;3.10;;
23175;SDS011;19910;42.652;23.332;2023-07-29T06:32:02;4.60;;;2.80;;
23175;SDS011;19910;42.652;23.332;2023-07-29T06:34:29;5.03;;;2.97;;
23175;SDS011;19910;42.652;23.332;2023-07-29T06:36:56;3.08;;;2.78;;
23175;SDS011;19910;42.652;23.332;2023-07-29T06:39:23;5.65;;;3.08;;
23175;SDS011;19910;42.652;23.332;2023-07-29T06:41:50;4.63;;;2.72;;
23175;SDS011;19910;42.652;23.332;2023-07-29T06:44:16;5.53;;;3.10;;
23175;SDS011;19910;42.652;23.332;2023-07-29T06:46:46;4.45;;;2.95;;
23175;SDS011;19910;42.652;23.332;2023-07-29T06:49:14;4.35;;;3.40;;
23175;SDS011;19910;42.652;23.332;2023-07-29T06:51:41;3.50;;;2.55;;
23175;SDS011;19910;42.652;23.332;2023-07-29T06:54:08;4.15;;;2.90;;
23175;SDS011;19910;42.652;23.332;2023-07-29T06:56:34;4.50;;;2.95;;
23175;SDS011;19910;42.652;23.332;2023-07-29T06:59:02;3.70;;;3.20;;
23175;SDS011;19910;42.652;23.332;2023-07-29T07:01:29;4.45;;;2.80;;
23175;SDS011;19910;42.652;23.332;2023-07-29T07:03:55;5.53;;;2.97;;
23175;SDS011;19910;42.652;23.332;2023-07-29T07:06:25;3.95;;;3.08;;
23175;SDS011;19910;42.652;23.332;2023-07-29T07:08:51;3.72;;;3.20;;
23175;SDS011;19910;42.652;23.332;2023-07-29T07:11:18;3.53;;;2.70;;
23175;SDS011;19910;42.652;23.332;2023-07-29T07:13:45;5.63;;;2.72;;
23175;SDS011;19910;42.652;23.332;2023-07-29T07:16:12;4.45;;;3.35;;
23175;SDS011;19910;42.652;23.332;2023-07-29T07:18:39;6.10;;;3.00;;
23175;SDS011;19910;42.652;23.332;2023-07-29T07:21:05;3.30;;;2.92;;
23175;SDS011;19910;42.652;23.332;2023-07-29T07:23:33;4.45;;;2.90;;
23175;SDS011;19910;42.652;23.332;2023-07-29T07:26:00;3.42;;;2.80;;
23175;SDS011;19910;42.652;23.332;2023-07-29T07:28:27;3.75;;;2.70;;
23175;SDS011;19910;42.652;23.332;2023-07-29T07:30:54;3.97;;;2.67;;
23175;SDS011;19910;42.652;23.332;2023-07-29T07:33:21;4.47;;;2.58;;
23175;SDS011;19910;42.652;23.332;2023-07-29T07:35:48;2.92;;;2.30;;
23175;SDS011;19910;42.652;23.332;2023-07-29T07:38:15;3.22;;;2.90;;
23175;SDS011;19910;42.652;23.332;2023-07-29T07:40:43;5.60;;;3.35;;
23175;SDS011;19910;42.652;23.332;2023-07-29T07:43:19;4.25;;;2.80;;
23175;SDS011;19910;42.652;23.332;2023-07-29T07:45:46;4.20;;;3.10;;
23175;SDS011;19910;42.652;23.332;2023-07-29T07:48:12;5.72;;;3.42;;
23175;SDS011;19910;42.652;23.332;2023-07-29T07:50:39;5.18;;;2.92;;
23175;SDS011;19910;42.652;23.332;2023-07-29T07:53:06;5.68;;;3.40;;
23175;SDS011;19910;42.652;23.332;2023-07-29T07:55:33;8.73;;;3.90;;
23175;SDS011;19910;42.652;23.332;2023-07-29T07:58:01;3.72;;;3.35;;
23175;SDS011;19910;42.652;23.332;2023-07-29T08:00:28;5.82;;;3.70;;
23175;SDS011;19910;42.652;23.332;2023-07-29T08:03:02;6.40;;;3.60;;
23175;SDS011;19910;42.652;23.332;2023-07-29T08:05:40;4.10;;;3.70;;
23175;SDS011;19910;42.652;23.332;2023-07-29T08:08:07;6.43;;;3.75;;
23175;SDS011;19910;42.652;23.332;2023-07-29T08:10:34;5.43;;;3.80;;
23175;SDS011;19910;42.652;23.332;2023-07-29T08:13:02;9.95;;;3.55;;
23175;SDS011;19910;42.652;23.332;2023-07-29T08:15:29;4.07;;;3.33;;
23175;SDS011;19910;42.652;23.332;2023-07-29T08:17:55;4.90;;;3.63;;
23175;SDS011;19910;42.652;23.332;2023-07-29T08:20:29;5.50;;;4.03;;
23175;SDS011;19910;42.652;23.332;2023-07-29T08:23:01;4.72;;;3.35;;
23175;SDS011;19910;42.652;23.332;2023-07-29T08:25:32;6.82;;;3.60;;
23175;SDS011;19910;42.652;23.332;2023-07-29T08:28:05;5.43;;;3.30;;
23175;SDS011;19910;42.652;23.332;2023-07-29T08:30:32;5.00;;;4.05;;
23175;SDS011;19910;42.652;23.332;2023-07-29T08:33:02;7.55;;;3.58;;
23175;SDS011;19910;42.652;23.332;2023-07-29T08:35:31;9.90;;;3.97;;
23175;SDS011;19910;42.652;23.332;2023-07-29T08:38:00;7.30;;;3.55;;
23175;SDS011;19910;42.652;23.332;2023-07-29T08:40:29;6.80;;;3.63;;
23175;SDS011;19910;42.652;23.332;2023-07-29T08:42:58;6.75;;;4.05;;
23175;SDS011;19910;42.652;23.332;2023-07-29T08:45:34;6.93;;;3.92;;
23175;SDS011;19910;42.652;23.332;2023-07-29T08:48:02;5.68;;;3.30;;
23175;SDS011;19910;42.652;23.332;2023-07-29T08:50:33;8.90;;;3.45;;
23175;SDS011;19910;42.652;23.332;2023-07-29T08:53:04;4.07;;;3.20;;
23175;SDS011;19910;42.652;23.332;2023-07-29T08:55:34;5.55;;;3.22;;
23175;SDS011;19910;42.652;23.332;2023-07-29T08:58:07;4.53;;;2.50;;
23175;SDS011;19910;42.652;23.332;2023-07-29T09:00:42;8.32;;;3.38;;
23175;SDS011;19910;42.652;23.332;2023-07-29T09:03:10;2.65;;;2.00;;
23175;SDS011;19910;42.652;23.332;2023-07-29T09:05:40;2.97;;;2.05;;
23175;SDS011;19910;42.652;23.332;2023-07-29T09:08:06;7.18;;;2.25;;
23175;SDS011;19910;42.652;23.332;2023-07-29T09:10:35;5.50;;;2.45;;
23175;SDS011;19910;42.652;23.332;2023-07-29T09:13:02;3.00;;;2.28;;
23175;SDS011;19910;42.652;23.332;2023-07-29T09:15:30;3.85;;;2.20;;
23175;SDS011;19910;42.652;23.332;2023-07-29T09:17:59;3.20;;;2.45;;
23175;SDS011;19910;42.652;23.332;2023-07-29T09:20:34;3.35;;;2.50;;
23175;SDS011;19910;42.652;23.332;2023-07-29T09:23:01;2.70;;;2.30;;
23175;SDS011;19910;42.652;23.332;2023-07-29T09:25:28;3.28;;;2.58;;
23175;SDS011;19910;42.652;23.332;2023-07-29T09:27:59;2.65;;;2.35;;
23175;SDS011;19910;42.652;23.332;2023-07-29T09:30:34;4.28;;;2.35;;
23175;SDS011;19910;42.652;23.332;2023-07-29T09:33:05;4.03;;;2.30;;
23175;SDS011;19910;42.652;23.332;2023-07-29T09:35:36;5.57;;;1.95;;
23175;SDS011;19910;42.652;23.332;2023-07-29T09:38:14;5.95;;;2.50;;
23175;SDS011;19910;42.652;23.332;2023-07-29T09:40:42;4.50;;;3.60;;
23175;SDS011;19910;42.652;23.332;2023-07-29T09:43:15;4.72;;;2.30;;
23175;SDS011;19910;42.652;23.332;2023-07-29T09:45:51;2.88;;;2.03;;
23175;SDS011;19910;42.652;23.332;2023-07-29T09:48:20;3.28;;;2.15;;
23175;SDS011;19910;42.652;23.332;2023-07-29T09:50:49;2.00;;;1.77;;
23175;SDS011;19910;42.652;23.332;2023-07-29T09:53:16;3.25;;;1.95;;
23175;SDS011;19910;42.652;23.332;2023-07-29T09:55:46;2.63;;;2.28;;
23175;SDS011;19910;42.652;23.332;2023-07-29T09:58:19;5.65;;;2.10;;
23175;SDS011;19910;42.652;23.332;2023-07-29T10:00:54;2.25;;;1.95;;
23175;SDS011;19910;42.652;23.332;2023-07-29T10:03:25;3.25;;;1.95;;
23175;SDS011;19910;42.652;23.332;2023-07-29T10:06:01;2.00;;;1.50;;
23175;SDS011;19910;42.652;23.332;2023-07-29T10:08:38;3.03;;;1.90;;
23175;SDS011;19910;42.652;23.332;2023-07-29T10:11:05;2.20;;;1.70;;
23175;SDS011;19910;42.652;23.332;2023-07-29T10:13:33;2.30;;;1.73;;
23175;SDS011;19910;42.652;23.332;2023-07-29T10:16:00;1.75;;;1.63;;
23175;SDS011;19910;42.652;23.332;2023-07-29T10:18:30;1.90;;;1.50;;
23175;SDS011;19910;42.652;23.332;2023-07-29T10:20:57;2.53;;;1.83;;
23175;SDS011;19910;42.652;23.332;2023-07-29T10:23:26;2.55;;;1.88;;
23175;SDS011;19910;42.652;23.332;2023-07-29T10:25:55;2.83;;;1.55;;
23175;SDS011;19910;42.652;23.332;2023-07-29T10:28:28;2.80;;;1.95;;
23175;SDS011;19910;42.652;23.332;2023-07-29T10:30:56;2.17;;;1.75;;
23175;SDS011;19910;42.652;23.332;2023-07-29T10:33:23;3.78;;;1.85;;
23175;SDS011;19910;42.652;23.332;2023-07-29T10:35:52;4.07;;;1.70;;
23175;SDS011;19910;42.652;23.332;2023-07-29T10:38:20;2.00;;;1.80;;
23175;SDS011;19910;42.652;23.332;2023-07-29T10:40:50;3.70;;;1.50;;
23175;SDS011;19910;42.652;23.332;2023-07-29T10:43:23;1.45;;;1.30;;
23175;SDS011;19910;42.652;23.332;2023-07-29T10:45:51;2.22;;;1.60;;
23175;SDS011;19910;42.652;23.332;2023-07-29T10:51:28;1.60;;;1.40;;
23175;SDS011;19910;42.652;23.332;2023-07-29T10:53:56;2.33;;;1.70;;
23175;SDS011;19910;42.652;23.332;2023-07-29T10:56:27;3.53;;;1.40;;
23175;SDS011;19910;42.652;23.332;2023-07-29T10:58:55;2.05;;;1.38;;
23175;SDS011;19910;42.652;23.332;2023-07-29T11:04:24;1.92;;;1.20;;
23175;SDS011;19910;42.652;23.332;2023-07-29T11:10:08;1.35;;;1.10;;
23175;SDS011;19910;42.652;23.332;2023-07-29T11:12:42;1.80;;;1.13;;
23175;SDS011;19910;42.652;23.332;2023-07-29T11:15:16;2.22;;;1.10;;
23175;SDS011;19910;42.652;23.332;2023-07-29T11:17:48;1.27;;;1.02;;
23175;SDS011;19910;42.652;23.332;2023-07-29T11:20:16;1.20;;;1.02;;
23175;SDS011;19910;42.652;23.332;2023-07-29T11:22:45;2.15;;;1.20;;
23175;SDS011;19910;42.652;23.332;2023-07-29T11:25:13;1.10;;;1.00;;
23175;SDS011;19910;42.652;23.332;2023-07-29T11:27:41;1.48;;;1.00;;
23175;SDS011;19910;42.652;23.332;2023-07-29T11:30:09;1.65;;;1.20;;
23175;SDS011;19910;42.652;23.332;2023-07-29T11:32:41;3.03;;;1.30;;
23175;SDS011;19910;42.652;23.332;2023-07-29T11:35:13;1.70;;;1.20;;
23175;SDS011;19910;42.652;23.332;2023-07-29T11:37:43;1.52;;;1.30;;
23175;SDS011;19910;42.652;23.332;2023-07-29T11:40:15;1.50;;;1.30;;
23175;SDS011;19910;42.652;23.332;2023-07-29T11:42:43;3.45;;;1.20;;
23175;SDS011;19910;42.652;23.332;2023-07-29T11:45:13;7.10;;;1.10;;
23175;SDS011;19910;42.652;23.332;2023-07-29T11:47:40;1.33;;;1.23;;
23175;SDS011;19910;42.652;23.332;2023-07-29T11:50:07;2.15;;;1.20;;
23175;SDS011;19910;42.652;23.332;2023-07-29T11:52:36;1.17;;;1.08;;
23175;SDS011;19910;42.652;23.332;2023-07-29T11:55:04;2.67;;;1.33;;
23175;SDS011;19910;42.652;23.332;2023-07-29T11:57:33;2.92;;;1.00;;
23175;SDS011;19910;42.652;23.332;2023-07-29T12:00:11;1.30;;;1.20;;
23175;SDS011;19910;42.652;23.332;2023-07-29T12:02:40;1.15;;;1.00;;
23175;SDS011;19910;42.652;23.332;2023-07-29T12:05:10;3.67;;;1.33;;
23175;SDS011;19910;42.652;23.332;2023-07-29T12:07:46;2.47;;;1.17;;
23175;SDS011;19910;42.652;23.332;2023-07-29T12:10:13;1.60;;;1.20;;
23175;SDS011;19910;42.652;23.332;2023-07-29T12:12:49;1.30;;;1.20;;
23175;SDS011;19910;42.652;23.332;2023-07-29T12:15:26;2.75;;;1.48;;
23175;SDS011;19910;42.652;23.332;2023-07-29T12:17:54;3.15;;;1.20;;
23175;SDS011;19910;42.652;23.332;2023-07-29T12:20:24;1.30;;;1.20;;
23175;SDS011;19910;42.652;23.332;2023-07-29T12:22:56;3.05;;;1.30;;
23175;SDS011;19910;42.652;23.332;2023-07-29T12:25:31;1.63;;;1.30;;
23175;SDS011;19910;42.652;23.332;2023-07-29T12:28:03;2.40;;;1.48;;
23175;SDS011;19910;42.652;23.332;2023-07-29T12:30:40;1.80;;;1.60;;
23175;SDS011;19910;42.652;23.332;2023-07-29T12:33:08;1.90;;;1.38;;
23175;SDS011;19910;42.652;23.332;2023-07-29T12:35:37;2.40;;;1.20;;
23175;SDS011;19910;42.652;23.332;2023-07-29T12:38:04;2.08;;;1.50;;
23175;SDS011;19910;42.652;23.332;2023-07-29T12:40:31;2.28;;;1.30;;
23175;SDS011;19910;42.652;23.332;2023-07-29T12:42:58;1.50;;;1.40;;
23175;SDS011;19910;42.652;23.332;2023-07-29T12:45:26;1.75;;;1.45;;
23175;SDS011;19910;42.652;23.332;2023-07-29T12:47:53;1.48;;;1.38;;
23175;SDS011;19910;42.652;23.332;2023-07-29T12:50:20;1.23;;;1.13;;
23175;SDS011;19910;42.652;23.332;2023-07-29T12:52:47;1.48;;;1.38;;
23175;SDS011;19910;42.652;23.332;2023-07-29T12:55:14;1.90;;;1.45;;
23175;SDS011;19910;42.652;23.332;2023-07-29T12:57:41;1.48;;;1.33;;
23175;SDS011;19910;42.652;23.332;2023-07-29T13:00:09;1.55;;;1.40;;
23175;SDS011;19910;42.652;23.332;2023-07-29T13:02:38;2.17;;;1.52;;
23175;SDS011;19910;42.652;23.332;2023-07-29T13:05:05;2.05;;;1.30;;
23175;SDS011;19910;42.652;23.332;2023-07-29T13:07:35;1.58;;;1.20;;
23175;SDS011;19910;42.652;23.332;2023-07-29T13:10:02;2.13;;;1.70;;
23175;SDS011;19910;42.652;23.332;2023-07-29T13:12:29;4.60;;;1.50;;
23175;SDS011;19910;42.652;23.332;2023-07-29T13:14:56;8.23;;;5.93;;
23175;SDS011;19910;42.652;23.332;2023-07-29T13:17:23;2.35;;;1.27;;
23175;SDS011;19910;42.652;23.332;2023-07-29T13:19:52;2.05;;;1.27;;
23175;SDS011;19910;42.652;23.332;2023-07-29T13:22:19;1.85;;;1.25;;
23175;SDS011;19910;42.652;23.332;2023-07-29T13:24:46;3.80;;;1.40;;
23175;SDS011;19910;42.652;23.332;2023-07-29T13:27:16;1.63;;;1.23;;
23175;SDS011;19910;42.652;23.332;2023-07-29T13:29:45;2.28;;;1.40;;
23175;SDS011;19910;42.652;23.332;2023-07-29T13:32:12;3.15;;;1.75;;
23175;SDS011;19910;42.652;23.332;2023-07-29T13:34:39;2.08;;;1.38;;
23175;SDS011;19910;42.652;23.332;2023-07-29T13:37:07;2.47;;;1.48;;
23175;SDS011;19910;42.652;23.332;2023-07-29T13:39:34;1.80;;;1.40;;
23175;SDS011;19910;42.652;23.332;2023-07-29T13:42:01;1.60;;;1.30;;
23175;SDS011;19910;42.652;23.332;2023-07-29T13:44:27;1.50;;;1.20;;
23175;SDS011;19910;42.652;23.332;2023-07-29T13:46:54;3.47;;;1.30;;
23175;SDS011;19910;42.652;23.332;2023-07-29T13:49:21;4.65;;;1.67;;
23175;SDS011;19910;42.652;23.332;2023-07-29T13:51:48;2.30;;;1.63;;
23175;SDS011;19910;42.652;23.332;2023-07-29T13:54:16;2.10;;;1.80;;
23175;SDS011;19910;42.652;23.332;2023-07-29T13:56:42;1.95;;;1.65;;
23175;SDS011;19910;42.652;23.332;2023-07-29T13:59:09;1.75;;;1.40;;
23175;SDS011;19910;42.652;23.332;2023-07-29T14:01:36;2.10;;;1.77;;
23175;SDS011;19910;42.652;23.332;2023-07-29T14:04:03;1.95;;;1.35;;
23175;SDS011;19910;42.652;23.332;2023-07-29T14:06:30;2.65;;;1.70;;
23175;SDS011;19910;42.652;23.332;2023-07-29T14:08:56;2.00;;;1.80;;
23175;SDS011;19910;42.652;23.332;2023-07-29T14:11:24;2.47;;;1.77;;
23175;SDS011;19910;42.652;23.332;2023-07-29T14:13:51;2.72;;;1.70;;
23175;SDS011;19910;42.652;23.332;2023-07-29T14:16:18;3.45;;;1.58;;
23175;SDS011;19910;42.652;23.332;2023-07-29T14:18:45;3.00;;;1.65;;
23175;SDS011;19910;42.652;23.332;2023-07-29T14:21:12;2.55;;;1.70;;
23175;SDS011;19910;42.652;23.332;2023-07-29T14:23:39;2.33;;;1.60;;
23175;SDS011;19910;42.652;23.332;2023-07-29T14:26:05;2.05;;;1.48;;
23175;SDS011;19910;42.652;23.332;2023-07-29T14:28:36;1.98;;;1.23;;
23175;SDS011;19910;42.652;23.332;2023-07-29T14:31:03;4.78;;;1.50;;
23175;SDS011;19910;42.652;23.332;2023-07-29T14:33:29;2.95;;;1.70;;
23175;SDS011;19910;42.652;23.332;2023-07-29T14:35:56;3.95;;;1.55;;
23175;SDS011;19910;42.652;23.332;2023-07-29T14:38:23;2.72;;;1.98;;
23175;SDS011;19910;42.652;23.332;2023-07-29T14:40:51;5.03;;;1.88;;
23175;SDS011;19910;42.652;23.332;2023-07-29T14:43:19;2.95;;;1.40;;
23175;SDS011;19910;42.652;23.332;2023-07-29T14:45:48;1.95;;;1.50;;
23175;SDS011;19910;42.652;23.332;2023-07-29T14:48:15;4.60;;;1.40;;